createdAt,value
2022-09-28T00:00:33.286Z,10.25
2022-09-28T00:02:37.283Z,10.35
2022-09-28T00:04:40.002Z,10.61
2022-09-28T00:06:42.552Z,10.49
2022-09-28T00:08:45.462Z,10.55
2022-09-28T00:10:55.878Z,10.63
2022-09-28T00:13:00.625Z,10.77
2022-09-28T00:15:03.424Z,10.69
2022-09-28T00:17:05.963Z,10.57
2022-09-28T00:19:10.639Z,10.67
2022-09-28T00:21:15.522Z,10.55
2022-09-28T00:23:18.057Z,10.54
2022-09-28T00:25:22.034Z,10.61
2022-09-28T00:27:24.700Z,10.57
2022-09-28T00:29:29.417Z,10.52
2022-09-28T00:31:33.978Z,10.62
2022-09-28T00:33:36.535Z,10.54
2022-09-28T00:35:40.778Z,10.56
2022-09-28T00:37:43.368Z,10.53
2022-09-28T00:39:46.933Z,10.53
2022-09-28T00:41:49.815Z,10.50
2022-09-28T00:43:53.102Z,10.47
2022-09-28T00:45:59.918Z,10.46
2022-09-28T00:48:02.620Z,10.49
2022-09-28T00:50:09.908Z,10.68
2022-09-28T00:52:19.923Z,10.59
2022-09-28T00:54:23.325Z,10.58
2022-09-28T00:56:29.033Z,10.55
2022-09-28T00:58:34.626Z,10.67
2022-09-28T01:00:37.318Z,10.62
2022-09-28T01:02:40.040Z,10.70
2022-09-28T01:04:42.620Z,10.69
2022-09-28T01:06:47.852Z,10.77
2022-09-28T01:08:55.491Z,10.67
2022-09-28T01:10:58.600Z,10.68
2022-09-28T01:13:01.141Z,10.67
2022-09-28T01:15:05.553Z,10.66
2022-09-28T01:17:14.696Z,10.68
2022-09-28T01:19:33.170Z,10.63
2022-09-28T01:21:43.067Z,10.61
2022-09-28T01:24:15.173Z,10.58
2022-09-28T01:26:47.559Z,10.56
2022-09-28T01:28:54.073Z,10.54
2022-09-28T01:31:06.682Z,10.53
2022-09-28T01:33:13.792Z,10.64
2022-09-28T01:35:19.492Z,10.63
2022-09-28T01:37:25.623Z,10.74
2022-09-28T01:39:34.353Z,10.71
2022-09-28T01:41:41.037Z,10.72
2022-09-28T01:43:49.322Z,10.75
2022-09-28T01:45:55.696Z,10.74
2022-09-28T01:48:03.035Z,10.70
2022-09-28T01:50:10.715Z,10.76
2022-09-28T01:52:19.301Z,10.76
2022-09-28T01:54:28.608Z,10.72
2022-09-28T01:56:36.087Z,10.80
2022-09-28T01:58:46.232Z,10.82
2022-09-28T02:00:53.708Z,10.79
2022-09-28T02:03:02.845Z,10.90
2022-09-28T02:05:11.304Z,10.78
2022-09-28T02:07:19.102Z,10.78
2022-09-28T02:09:30.492Z,10.88
2022-09-28T02:11:37.372Z,10.81
2022-09-28T02:13:44.669Z,10.98
2022-09-28T02:15:52.793Z,10.87
2022-09-28T02:17:55.761Z,10.85
2022-09-28T02:19:58.362Z,10.79
2022-09-28T02:22:09.304Z,10.91
2022-09-28T02:24:21.410Z,11.06
2022-09-28T02:26:30.549Z,10.92
2022-09-28T02:28:33.213Z,11.07
2022-09-28T02:30:42.340Z,11.00
2022-09-28T02:32:49.635Z,10.96
2022-09-28T02:34:52.187Z,10.94
2022-09-28T02:36:54.795Z,10.90
2022-09-28T02:38:58.914Z,11.01
2022-09-28T02:41:06.880Z,10.93
2022-09-28T02:43:20.332Z,10.93
2022-09-28T02:45:35.068Z,11.04
2022-09-28T02:47:56.411Z,10.98
2022-09-28T02:50:12.005Z,10.99
2022-09-28T02:52:37.721Z,10.95
2022-09-28T02:55:10.907Z,11.02
2022-09-28T02:57:27.779Z,10.98
2022-09-28T02:59:47.614Z,10.95
2022-09-28T03:01:57.361Z,10.89
2022-09-28T03:04:09.984Z,10.93
2022-09-28T03:06:22.872Z,10.94
2022-09-28T03:08:30.469Z,10.89
2022-09-28T03:10:39.076Z,10.88
2022-09-28T03:12:44.305Z,10.96
2022-09-28T03:14:47.002Z,11.03
2022-09-28T03:16:49.574Z,10.97
2022-09-28T03:18:52.109Z,10.91
2022-09-28T03:20:56.695Z,10.87
2022-09-28T03:23:23.912Z,10.83
2022-09-28T03:25:21.876Z,10.76
2022-09-28T03:27:24.454Z,10.77
2022-09-28T03:29:27.036Z,10.78
2022-09-28T03:31:29.827Z,10.78
2022-09-28T03:33:32.445Z,10.77
2022-09-28T03:35:35.059Z,10.75
2022-09-28T03:37:39.109Z,10.76
2022-09-28T03:39:41.685Z,10.76
2022-09-28T03:41:44.248Z,10.75
2022-09-28T03:43:46.892Z,10.84
2022-09-28T03:45:54.133Z,10.80
2022-09-28T03:47:56.912Z,10.79
2022-09-28T03:49:59.423Z,10.76
2022-09-28T03:52:02.433Z,10.74
2022-09-28T03:54:06.682Z,10.68
2022-09-28T03:56:12.560Z,10.64
2022-09-28T03:58:15.107Z,10.64
2022-09-28T04:00:17.945Z,10.63
2022-09-28T04:02:20.556Z,10.64
2022-09-28T04:04:23.289Z,10.62
2022-09-28T04:06:25.933Z,10.60
2022-09-28T04:08:29.416Z,10.54
2022-09-28T04:10:33.332Z,10.57
2022-09-28T04:12:35.928Z,10.61
2022-09-28T04:14:38.673Z,10.59
2022-09-28T04:16:41.290Z,10.59
2022-09-28T04:18:43.907Z,10.61
2022-09-28T04:20:48.025Z,10.60
2022-09-28T04:22:50.569Z,10.62
2022-09-28T04:24:53.114Z,10.61
2022-09-28T04:27:17.408Z,10.65
2022-09-28T04:29:19.507Z,10.62
2022-09-28T04:31:25.380Z,10.65
2022-09-28T04:33:27.969Z,10.64
2022-09-28T04:35:30.534Z,10.66
2022-09-28T04:37:33.738Z,10.66
2022-09-28T04:39:36.299Z,10.63
2022-09-28T04:41:38.953Z,10.64
2022-09-28T04:43:42.925Z,10.65
2022-09-28T04:45:45.470Z,10.65
2022-09-28T04:47:48.014Z,10.59
2022-09-28T04:49:50.557Z,10.61
2022-09-28T04:51:53.072Z,10.56
2022-09-28T04:53:56.374Z,10.59
2022-09-28T04:56:00.430Z,10.55
2022-09-28T04:58:05.323Z,10.58
2022-09-28T05:00:11.067Z,10.61
2022-09-28T05:02:15.102Z,10.63
2022-09-28T05:04:20.266Z,10.56
2022-09-28T05:06:27.949Z,10.57
2022-09-28T05:08:30.574Z,10.55
2022-09-28T05:10:33.160Z,10.53
2022-09-28T05:12:35.699Z,10.50
2022-09-28T05:14:38.348Z,10.52
2022-09-28T05:16:42.286Z,10.48
2022-09-28T05:18:44.937Z,10.49
2022-09-28T05:20:47.556Z,10.51
2022-09-28T05:22:50.101Z,10.47
2022-09-28T05:24:54.647Z,10.54
2022-09-28T05:26:57.222Z,10.55
2022-09-28T05:28:59.793Z,10.54
2022-09-28T05:31:04.014Z,10.57
2022-09-28T05:33:08.932Z,10.64
2022-09-28T05:35:12.265Z,10.60
2022-09-28T05:37:14.823Z,10.59
2022-09-28T05:39:17.497Z,10.61
2022-09-28T05:41:20.191Z,10.64
2022-09-28T05:43:23.427Z,10.61
2022-09-28T05:45:25.992Z,10.63
2022-09-28T05:47:28.619Z,10.63
2022-09-28T05:49:32.591Z,10.63
2022-09-28T05:51:35.231Z,10.62
2022-09-28T05:53:37.833Z,10.64
2022-09-28T05:55:40.551Z,10.64
2022-09-28T05:57:43.280Z,10.65
2022-09-28T05:59:45.923Z,10.65
2022-09-28T06:01:48.540Z,10.66
2022-09-28T06:03:53.285Z,10.65
2022-09-28T06:05:57.165Z,10.67
2022-09-28T06:08:00.542Z,10.67
2022-09-28T06:10:03.113Z,10.66
2022-09-28T06:12:05.780Z,10.64
2022-09-28T06:14:08.352Z,10.61
2022-09-28T06:16:16.052Z,10.59
2022-09-28T06:18:18.653Z,10.58
2022-09-28T06:20:21.223Z,10.56
2022-09-28T06:22:25.133Z,10.56
2022-09-28T06:24:27.847Z,10.53
2022-09-28T06:26:30.995Z,10.52
2022-09-28T06:28:33.560Z,10.50
2022-09-28T06:30:39.001Z,10.49
2022-09-28T06:32:42.059Z,10.47
2022-09-28T08:38:15.427Z,10.54
2022-09-28T08:40:24.609Z,10.55
2022-09-28T08:42:34.026Z,10.55
2022-09-28T08:46:54.606Z,10.53
2022-09-28T08:49:20.998Z,10.54
2022-09-28T08:51:26.762Z,10.55
2022-09-28T08:53:40.777Z,10.57
2022-09-28T08:55:45.224Z,10.58
2022-09-28T08:57:53.585Z,10.61
2022-09-28T08:59:58.264Z,10.64
2022-09-28T09:02:03.436Z,10.68
2022-09-28T09:04:08.204Z,10.76
2022-09-28T09:06:20.627Z,10.80
2022-09-28T09:08:40.177Z,10.82
2022-09-28T09:10:53.559Z,10.89
2022-09-28T09:13:07.251Z,10.95
2022-09-28T09:15:41.547Z,11.01
2022-09-28T09:17:55.318Z,11.11
2022-09-28T09:20:12.284Z,11.12
2022-09-28T09:22:18.535Z,11.15
2022-09-28T09:24:28.290Z,11.14
2022-09-28T09:26:39.427Z,11.12
2022-09-28T09:29:09.075Z,11.16
2022-09-28T09:31:26.580Z,11.22
2022-09-28T09:33:46.208Z,11.24
2022-09-28T09:36:08.465Z,11.31
2022-09-28T09:38:27.790Z,11.34
2022-09-28T09:40:48.289Z,11.37
2022-09-28T09:43:03.597Z,11.41
2022-09-28T09:45:26.720Z,11.41
2022-09-28T09:47:34.871Z,11.45
2022-09-28T09:49:41.174Z,11.46
2022-09-28T09:51:48.069Z,11.47
2022-09-28T09:53:55.392Z,11.47
2022-09-28T09:56:05.044Z,11.51
2022-09-28T09:58:14.784Z,11.53
2022-09-28T10:00:18.553Z,11.53
2022-09-28T10:02:25.639Z,11.52
2022-09-28T10:04:31.804Z,11.53
2022-09-28T10:06:36.193Z,11.52
2022-09-28T10:08:42.059Z,11.51
2022-09-28T10:10:50.815Z,11.57
2022-09-28T10:12:55.189Z,11.58
2022-09-28T10:14:57.743Z,11.63
2022-09-28T10:17:03.995Z,11.69
2022-09-28T10:19:06.671Z,11.73
2022-09-28T10:21:13.632Z,11.78
2022-09-28T10:23:22.661Z,11.79
2022-09-28T10:25:26.060Z,11.88
2022-09-28T10:27:32.093Z,11.95
2022-09-28T10:29:43.178Z,11.96
2022-09-28T10:31:48.320Z,11.99
2022-09-28T10:33:54.270Z,11.90
2022-09-28T10:35:57.149Z,11.91
2022-09-28T10:38:04.439Z,11.88
2022-09-28T10:40:34.089Z,11.91
2022-09-28T10:42:37.108Z,11.94
2022-09-28T10:44:55.790Z,11.96
2022-09-28T10:47:01.017Z,12.02
2022-09-28T10:49:06.560Z,12.06
2022-09-28T10:51:09.196Z,12.10
2022-09-28T10:53:18.135Z,12.29
2022-09-28T10:55:30.538Z,12.35
2022-09-28T10:57:36.616Z,12.34
2022-09-28T10:59:41.982Z,12.37
2022-09-28T11:01:48.226Z,12.37
2022-09-28T11:03:55.994Z,12.39
2022-09-28T11:06:01.702Z,12.50
2022-09-28T11:08:08.398Z,12.37
2022-09-28T11:10:21.256Z,12.39
2022-09-28T11:12:26.144Z,12.38
2022-09-28T11:14:39.606Z,12.40
2022-09-28T11:16:45.977Z,12.40
2022-09-28T11:18:48.635Z,12.31
2022-09-28T11:20:51.189Z,12.38
2022-09-28T11:22:55.637Z,12.34
2022-09-28T11:25:22.115Z,12.33
2022-09-28T11:27:26.512Z,12.33
2022-09-28T11:29:38.028Z,12.43
2022-09-28T11:31:40.639Z,12.24
2022-09-28T11:33:47.510Z,12.28
2022-09-28T11:35:57.170Z,12.25
2022-09-28T11:38:17.326Z,12.21
2022-09-28T11:40:30.506Z,12.22
2022-09-28T11:42:44.297Z,12.24
2022-09-28T11:44:47.954Z,12.26
2022-09-28T11:47:02.697Z,12.24
2022-09-28T11:49:18.444Z,12.24
2022-09-28T11:51:27.199Z,12.23
2022-09-28T11:53:35.990Z,12.18
2022-09-28T11:55:43.807Z,12.18
2022-09-28T11:57:52.036Z,12.22
2022-09-28T12:00:00.313Z,12.16
2022-09-28T12:02:12.918Z,12.15
2022-09-28T12:04:22.298Z,12.17
2022-09-28T12:06:32.255Z,12.17
2022-09-28T12:08:38.026Z,12.20
2022-09-28T12:10:48.472Z,12.19
2022-09-28T12:12:57.665Z,12.20
2022-09-28T12:15:05.890Z,12.25
2022-09-28T12:17:20.141Z,12.23
2022-09-28T12:19:31.830Z,12.24
2022-09-28T12:21:39.582Z,12.27
2022-09-28T12:23:44.406Z,12.39
2022-09-28T12:25:52.947Z,12.45
2022-09-28T12:28:00.301Z,12.51
2022-09-28T12:30:06.344Z,12.54
2022-09-28T12:32:18.279Z,12.54
2022-09-28T12:34:22.340Z,12.53
2022-09-28T12:36:41.910Z,12.54
2022-09-28T12:39:19.001Z,12.56
2022-09-28T12:41:33.582Z,12.56
2022-09-28T12:43:48.129Z,12.56
2022-09-28T12:46:12.982Z,12.69
2022-09-28T12:48:36.273Z,12.63
2022-09-28T12:50:56.879Z,12.54
2022-09-28T12:53:20.679Z,12.47
2022-09-28T12:55:33.905Z,12.44
2022-09-28T12:57:44.947Z,12.50
2022-09-28T13:00:00.704Z,12.49
2022-09-28T13:02:37.541Z,12.48
2022-09-28T13:04:57.152Z,12.47
2022-09-28T13:07:06.089Z,12.47
2022-09-28T13:09:21.841Z,12.49
2022-09-28T13:11:33.768Z,12.50
2022-09-28T13:13:42.052Z,12.49
2022-09-28T13:15:51.030Z,12.49
2022-09-28T13:18:02.045Z,12.50
2022-09-28T13:20:13.680Z,12.50
2022-09-28T13:22:29.095Z,12.56
2022-09-28T13:24:38.190Z,12.60
2022-09-28T13:26:45.780Z,12.55
2022-09-28T13:28:51.334Z,12.54
2022-09-28T13:30:56.362Z,12.57
2022-09-28T13:33:02.390Z,12.57
2022-09-28T13:35:06.352Z,12.58
2022-09-28T13:37:19.870Z,12.69
2022-09-28T13:39:38.570Z,12.69
2022-09-28T13:41:50.617Z,12.72
2022-09-28T13:44:16.496Z,12.77
2022-09-28T13:46:28.369Z,12.78
2022-09-28T13:48:46.031Z,12.75
2022-09-28T13:51:12.978Z,12.80
2022-09-28T13:53:24.292Z,12.77
2022-09-28T13:55:37.223Z,12.77
2022-09-28T13:57:47.110Z,12.81
2022-09-28T14:00:02.465Z,12.77
2022-09-28T14:02:23.809Z,12.83
2022-09-28T14:04:53.808Z,12.84
2022-09-28T14:06:57.978Z,12.78
2022-09-28T14:09:25.715Z,12.81
2022-09-28T14:11:56.532Z,12.81
2022-09-28T14:14:00.659Z,12.79
2022-09-28T14:16:21.880Z,12.70
2022-09-28T14:18:31.194Z,12.87
2022-09-28T14:20:36.345Z,13.00
2022-09-28T14:22:50.194Z,12.82
2022-09-28T14:25:09.672Z,12.88
2022-09-28T14:27:41.848Z,12.86
2022-09-28T14:29:45.550Z,12.74
2022-09-28T14:31:48.175Z,12.75
2022-09-28T14:33:57.821Z,12.72
2022-09-28T14:36:04.629Z,12.64
2022-09-28T14:38:32.697Z,12.69
2022-09-28T14:41:13.671Z,12.72
2022-09-28T14:43:28.015Z,12.75
2022-09-28T14:45:38.452Z,12.88
2022-09-28T14:47:43.351Z,13.05
2022-09-28T14:49:48.890Z,13.04
2022-09-28T14:52:05.577Z,13.13
2022-09-28T14:54:18.154Z,13.16
2022-09-28T14:56:20.973Z,13.18
2022-09-28T14:58:28.768Z,13.20
2022-09-28T15:00:31.997Z,13.19
2022-09-28T15:02:38.420Z,13.13
2022-09-28T15:04:44.398Z,13.22
2022-09-28T15:06:48.192Z,13.23
2022-09-28T15:08:50.921Z,13.20
2022-09-28T15:10:53.563Z,13.15
2022-09-28T15:12:57.210Z,13.13
2022-09-28T15:15:03.613Z,13.16
2022-09-28T15:17:10.626Z,13.14
2022-09-28T15:19:27.371Z,13.11
2022-09-28T15:21:37.553Z,13.08
2022-09-28T15:23:42.875Z,13.11
2022-09-28T15:25:52.820Z,12.98
2022-09-28T15:27:57.400Z,12.97
2022-09-28T15:30:02.957Z,12.95
2022-09-28T15:32:05.525Z,12.94
2022-09-28T15:34:44.408Z,12.88
2022-09-28T15:36:47.830Z,12.82
2022-09-28T15:38:56.927Z,12.90
2022-09-28T15:41:02.750Z,12.87
2022-09-28T15:43:21.531Z,12.92
2022-09-28T15:45:28.630Z,12.95
2022-09-28T15:47:32.919Z,13.04
2022-09-28T15:49:41.133Z,13.02
2022-09-28T15:51:52.117Z,13.11
2022-09-28T15:53:58.884Z,12.97
2022-09-28T15:56:10.101Z,13.01
2022-09-28T15:58:18.654Z,12.95
2022-09-28T16:00:28.475Z,12.82
2022-09-28T16:02:31.350Z,12.73
2022-09-28T16:04:38.216Z,12.65
2022-09-28T16:06:41.869Z,12.68
2022-09-28T16:08:45.279Z,12.68
2022-09-28T16:11:10.833Z,12.66
2022-09-28T16:13:17.836Z,12.64
2022-09-28T16:15:22.636Z,12.52
2022-09-28T16:17:32.652Z,12.41
2022-09-28T16:19:39.331Z,12.35
2022-09-28T16:21:46.358Z,12.36
2022-09-28T16:23:52.677Z,12.42
2022-09-28T16:25:58.720Z,12.34
2022-09-28T16:28:01.701Z,12.29
2022-09-28T16:30:17.189Z,12.19
2022-09-28T16:32:38.183Z,12.21
2022-09-28T16:34:40.719Z,12.20
2022-09-28T16:36:45.460Z,12.11
2022-09-28T16:38:48.954Z,12.10
2022-09-28T16:40:53.781Z,12.19
2022-09-28T16:42:59.783Z,12.15
2022-09-28T16:45:05.190Z,12.13
2022-09-28T16:47:07.715Z,12.26
2022-09-28T16:49:18.487Z,12.08
2022-09-28T16:51:22.872Z,12.01
2022-09-28T16:53:43.517Z,11.94
2022-09-28T16:55:47.750Z,11.87
2022-09-28T16:57:50.490Z,11.87
2022-09-28T16:59:53.113Z,11.84
2022-09-28T17:01:56.596Z,11.78
2022-09-28T17:03:59.333Z,11.75
2022-09-28T17:06:06.088Z,11.73
2022-09-28T17:08:14.617Z,11.72
2022-09-28T17:10:19.195Z,11.68
2022-09-28T17:12:24.639Z,11.63
2022-09-28T17:14:27.468Z,11.58
2022-09-28T17:18:55.532Z,11.49
2022-09-28T17:20:59.398Z,11.46
2022-09-28T17:23:03.362Z,11.46
2022-09-28T17:25:09.056Z,11.50
2022-09-28T17:27:19.698Z,11.44
2022-09-28T17:29:23.589Z,11.38
2022-09-28T17:31:26.698Z,11.38
2022-09-28T17:33:29.751Z,11.34
2022-09-28T17:35:34.148Z,11.33
2022-09-28T17:37:41.123Z,11.31
2022-09-28T17:39:44.996Z,11.31
2022-09-28T17:41:47.877Z,11.26
2022-09-28T17:43:50.615Z,11.24
2022-09-28T17:45:53.212Z,11.22
2022-09-28T17:47:57.238Z,11.24
2022-09-28T17:49:59.779Z,11.19
2022-09-28T17:52:04.002Z,11.25
2022-09-28T17:54:08.012Z,11.23
2022-09-28T17:56:12.080Z,11.17
2022-09-28T17:58:17.554Z,11.15
2022-09-28T18:00:20.352Z,11.15
2022-09-28T18:02:23.708Z,11.15
2022-09-28T18:04:50.371Z,11.12
2022-09-28T18:06:48.867Z,11.10
2022-09-28T18:08:51.447Z,11.09
2022-09-28T18:10:54.646Z,11.04
2022-09-28T18:12:58.523Z,11.05
2022-09-28T18:15:01.137Z,11.01
2022-09-28T18:17:03.787Z,11.02
2022-09-28T18:19:06.321Z,10.99
2022-09-28T18:21:09.225Z,10.98
2022-09-28T19:47:19.899Z,10.20
2022-09-28T19:49:23.674Z,10.18
2022-09-28T19:51:28.249Z,10.16
2022-09-28T19:53:33.214Z,10.15
2022-09-28T19:55:36.902Z,10.10
2022-09-28T19:59:13.604Z,10.10
2022-09-28T20:01:16.227Z,10.13
2022-09-28T20:03:21.953Z,10.11
2022-09-28T20:05:24.523Z,10.11
2022-09-28T20:07:27.747Z,10.07
2022-09-28T20:09:30.404Z,10.11
2022-09-28T20:11:33.617Z,9.92
2022-09-28T20:13:38.122Z,9.90
2022-09-28T20:15:42.228Z,9.77
2022-09-28T20:17:44.811Z,9.78
2022-09-28T20:19:47.899Z,9.82
2022-09-28T20:21:50.968Z,9.86
2022-09-28T20:23:56.236Z,9.91
2022-09-28T20:25:58.942Z,9.91
2022-09-28T20:28:02.152Z,9.89
2022-09-28T20:30:05.304Z,9.91
2022-09-28T20:32:09.205Z,9.91
2022-09-28T20:34:13.037Z,9.89
2022-09-28T20:36:17.294Z,9.86
2022-09-28T20:38:20.031Z,9.86
2022-09-28T20:40:22.783Z,9.86
2022-09-28T20:42:25.442Z,9.88
2022-09-28T20:44:28.326Z,9.85
2022-09-28T20:46:31.010Z,9.86
2022-09-28T20:48:35.388Z,9.89
2022-09-28T20:50:37.947Z,9.90
2022-09-28T20:52:40.550Z,9.87
2022-09-28T20:54:43.136Z,9.86
2022-09-28T20:56:47.961Z,9.86
2022-09-28T20:58:51.172Z,9.84
2022-09-28T21:00:53.928Z,9.86
2022-09-28T21:02:56.521Z,9.86
2022-09-28T21:05:00.833Z,9.87
2022-09-28T21:07:03.414Z,9.89
2022-09-28T21:09:07.301Z,9.88
2022-09-28T21:11:09.840Z,9.88
2022-09-28T21:13:12.424Z,9.85
2022-09-28T21:15:15.038Z,9.84
2022-09-28T21:17:17.682Z,9.83
2022-09-28T21:19:22.345Z,9.84
2022-09-28T21:21:27.378Z,9.82
2022-09-28T21:23:30.424Z,9.84
2022-09-28T21:25:33.047Z,9.81
2022-09-28T21:27:35.584Z,9.80
2022-09-28T21:29:38.189Z,9.75
2022-09-28T21:31:42.393Z,9.73
2022-09-28T21:33:45.027Z,9.68
2022-09-28T21:35:47.604Z,9.65
2022-09-28T21:37:51.825Z,9.61
2022-09-28T21:39:54.409Z,9.58
2022-09-28T21:41:57.080Z,9.52
2022-09-28T21:43:59.849Z,9.49
2022-09-28T21:46:02.763Z,9.47
2022-09-28T21:48:05.764Z,9.44
2022-09-28T21:50:09.289Z,9.44
2022-09-28T21:52:11.855Z,9.41
2022-09-28T21:54:15.771Z,9.38
2022-09-28T21:56:18.634Z,9.38
2022-09-28T21:58:23.643Z,9.36
2022-09-28T22:00:26.323Z,9.32
2022-09-28T22:02:29.772Z,9.29
2022-09-28T22:04:32.434Z,9.25
2022-09-28T22:06:35.370Z,9.17
2022-09-28T22:08:38.878Z,9.07
2022-09-28T22:10:43.271Z,9.01
2022-09-28T22:12:45.898Z,8.86
2022-09-28T22:14:48.529Z,8.86
2022-09-28T22:16:51.156Z,8.76
2022-09-28T22:18:54.388Z,8.71
2022-09-28T22:21:00.660Z,8.70
2022-09-28T22:23:03.216Z,8.53
2022-09-28T22:25:06.626Z,8.48
2022-09-28T22:27:10.588Z,8.42
2022-09-28T22:29:13.151Z,8.32
2022-09-28T22:31:16.874Z,8.16
2022-09-28T22:33:19.491Z,8.09
2022-09-28T22:35:22.028Z,8.09
2022-09-28T22:37:28.015Z,8.15
2022-09-28T22:39:34.238Z,8.24
2022-09-28T22:41:39.324Z,8.28
2022-09-28T22:43:43.827Z,8.36
2022-09-28T22:45:46.544Z,8.42
2022-09-28T22:47:49.107Z,8.48
2022-09-28T22:49:51.685Z,8.49
2022-09-28T22:51:54.373Z,8.55
2022-09-28T22:53:57.587Z,8.53
2022-09-28T22:56:01.508Z,8.53
2022-09-28T22:58:04.209Z,8.60
2022-09-28T23:00:09.739Z,8.62
2022-09-28T23:02:12.662Z,8.62
2022-09-28T23:04:15.223Z,8.68
2022-09-28T23:06:20.944Z,8.70
2022-09-28T23:08:24.424Z,8.76
2022-09-28T23:10:27.052Z,8.77
2022-09-28T23:12:30.515Z,8.78
2022-09-28T23:14:33.104Z,8.94
2022-09-28T23:16:37.016Z,8.94
2022-09-28T23:18:41.715Z,8.96
2022-09-28T23:20:44.277Z,8.99
2022-09-28T23:22:47.454Z,9.00
2022-09-28T23:24:50.025Z,9.05
2022-09-28T23:26:52.625Z,9.09
2022-09-28T23:28:55.723Z,9.12
2022-09-28T23:31:09.071Z,9.13
2022-09-28T23:33:17.639Z,9.13
2022-09-28T23:35:20.304Z,9.15
2022-09-28T23:37:22.848Z,9.13
2022-09-28T23:39:25.603Z,9.14
2022-09-28T23:41:28.791Z,9.18
2022-09-28T23:43:31.350Z,9.14
2022-09-28T23:45:34.104Z,9.15
2022-09-28T23:47:38.196Z,9.14
2022-09-28T23:49:42.095Z,9.19
2022-09-28T23:51:44.677Z,9.21
2022-09-28T23:53:47.611Z,9.23
2022-09-28T23:55:50.211Z,9.27
2022-09-28T23:57:55.493Z,9.31
2022-09-28T23:59:58.608Z,9.33
